Time;durP1;ratioP1;P1;durP2;ratioP2;P2;SDS_P1;SDS_P2;PMS_P1;PMS_P2;Temp;Humidity;BMP_temperature;BMP_pressure;BME280_temperature;BME280_humidity;BME280_pressure;Samples;Min_cycle;Max_cycle;Signal;HPM_P1;HPM_P2
2023/09/08 00:01:32;;;;;;;2.63;2.43;;;21.40;64.70;20.70;96781.00;;;;5012605;28;20627;-86
2023/09/08 00:04:00;;;;;;;3.20;2.20;;;21.40;64.80;20.60;96785.00;;;;5012191;28;20198;-87
2023/09/08 00:06:27;;;;;;;3.27;2.77;;;21.30;64.80;20.60;96774.00;;;;5003378;28;20292;-85
2023/09/08 00:08:54;;;;;;;2.50;2.30;;;21.30;64.90;20.60;96775.00;;;;4988391;28;20225;-87
2023/09/08 00:11:22;;;;;;;2.67;2.47;;;21.30;64.70;20.60;96772.00;;;;5002516;28;20194;-86
2023/09/08 00:13:50;;;;;;;2.50;2.30;;;21.30;65.00;20.50;96775.00;;;;5013122;28;20190;-85
2023/09/08 00:16:19;;;;;;;2.40;2.20;;;21.20;65.00;20.50;96770.00;;;;5015240;28;20222;-85
2023/09/08 00:18:46;;;;;;;2.60;2.40;;;21.20;65.00;20.50;96774.00;;;;5007891;28;20194;-86
2023/09/08 00:21:13;;;;;;;2.70;2.50;;;21.20;65.00;20.50;96771.00;;;;5013314;28;20194;-85
2023/09/08 00:23:40;;;;;;;2.80;2.60;;;21.20;65.10;20.40;96767.00;;;;5010559;28;20655;-85
2023/09/08 00:26:07;;;;;;;5.57;2.87;;;21.20;65.10;20.40;96765.00;;;;5013974;28;20600;-85
2023/09/08 00:28:35;;;;;;;3.30;2.60;;;21.10;65.00;20.40;96758.00;;;;5013993;28;20790;-85
2023/09/08 00:31:02;;;;;;;3.70;2.30;;;21.10;65.10;20.40;96772.00;;;;5015766;28;20201;-85
2023/09/08 00:33:33;;;;;;;3.07;2.47;;;21.10;65.20;20.30;96765.00;;;;5015435;28;20280;-85
2023/09/08 00:36:04;;;;;;;2.53;2.33;;;21.10;65.20;20.30;96766.00;;;;5008906;28;20218;-85
2023/09/08 00:38:31;;;;;;;3.00;2.47;;;21.00;65.20;20.30;96767.00;;;;5014414;28;20574;-85
2023/09/08 00:41:00;;;;;;;2.60;2.40;;;21.00;65.30;20.30;96770.00;;;;5015153;28;20211;-85
2023/09/08 00:43:28;;;;;;;4.30;2.43;;;21.00;65.30;20.20;96767.00;;;;5015184;28;20630;-85
2023/09/08 00:45:58;;;;;;;2.70;2.50;;;20.90;65.50;20.20;96763.00;;;;5013838;28;20214;-85
2023/09/08 00:48:26;;;;;;;2.87;2.33;;;20.90;65.60;20.20;96762.00;;;;5015221;28;20288;-85
2023/09/08 00:50:55;;;;;;;4.03;2.20;;;20.90;65.80;20.20;96760.00;;;;5015120;28;20209;-85
2023/09/08 00:53:23;;;;;;;2.40;2.20;;;20.90;66.10;20.20;96760.00;;;;5015184;28;20297;-85
2023/09/08 00:55:52;;;;;;;2.13;2.03;;;20.80;65.80;20.10;96759.00;;;;5014015;28;20218;-84
2023/09/08 00:58:20;;;;;;;2.83;2.60;;;20.80;65.80;20.10;96758.00;;;;5014898;28;20202;-85
2023/09/08 01:00:48;;;;;;;2.60;2.40;;;20.80;65.80;20.10;96757.00;;;;5014903;28;20281;-85
2023/09/08 01:03:15;;;;;;;3.07;2.50;;;20.80;65.90;20.10;96766.00;;;;4982748;28;20198;-85
2023/09/08 01:05:42;;;;;;;5.03;2.67;;;20.80;65.90;20.10;96761.00;;;;5010866;28;20229;-85
2023/09/08 01:08:11;;;;;;;2.57;2.37;;;20.80;66.00;20.10;96758.00;;;;5014074;28;20577;-85
2023/09/08 01:10:39;;;;;;;2.80;2.47;;;20.80;66.10;20.00;96763.00;;;;5007315;28;20204;-85
2023/09/08 01:13:06;;;;;;;2.93;2.53;;;20.80;66.00;20.00;96763.00;;;;5013212;28;20851;-85
2023/09/08 01:15:33;;;;;;;2.40;2.20;;;20.70;66.00;20.00;96764.00;;;;5013350;28;20965;-85
2023/09/08 01:18:00;;;;;;;3.50;2.83;;;20.70;66.70;20.00;96765.00;;;;5012979;28;20701;-85
2023/09/08 01:20:42;;;;;;;3.33;2.90;;;20.70;66.10;20.00;96766.00;;;;5012543;28;20677;-85
2023/09/08 01:23:22;;;;;;;2.30;2.10;;;20.70;66.30;19.90;96769.00;;;;5012372;28;20203;-85
2023/09/08 01:25:58;;;;;;;2.80;2.23;;;20.70;67.10;19.90;96774.00;;;;5014137;28;20591;-85
2023/09/08 01:28:26;;;;;;;3.67;2.67;;;20.70;66.30;19.90;96764.00;;;;5012970;28;20602;-85
2023/09/08 01:30:56;;;;;;;4.93;2.63;;;20.70;66.40;19.90;96769.00;;;;5005053;28;20606;-85
2023/09/08 01:33:24;;;;;;;2.80;2.60;;;20.60;66.40;19.90;96763.00;;;;5014610;28;20198;-84
2023/09/08 01:35:53;;;;;;;2.80;2.40;;;20.60;67.20;19.90;96755.00;;;;4996917;28;20714;-84
2023/09/08 01:38:21;;;;;;;2.30;2.10;;;20.60;66.50;19.90;96761.00;;;;5014131;28;20202;-85
2023/09/08 01:40:48;;;;;;;4.53;2.70;;;20.60;66.60;19.90;96758.00;;;;5014180;28;20224;-85
2023/09/08 01:43:17;;;;;;;3.20;2.67;;;20.60;66.70;19.80;96761.00;;;;5013047;28;20631;-85
2023/09/08 01:45:45;;;;;;;3.97;2.57;;;20.60;66.90;19.80;96758.00;;;;5013618;28;20304;-85
2023/09/08 01:48:12;;;;;;;2.60;2.37;;;20.60;67.10;19.80;96759.00;;;;5014175;28;20194;-85
2023/09/08 01:50:39;;;;;;;4.17;2.30;;;20.60;67.10;19.80;96757.00;;;;5014208;28;20197;-85
2023/09/08 01:53:06;;;;;;;2.40;2.20;;;20.50;67.10;19.80;96761.00;;;;5014229;28;20204;-85
2023/09/08 01:55:33;;;;;;;2.83;2.60;;;20.50;67.20;19.80;96757.00;;;;5012061;28;20821;-85
2023/09/08 01:58:00;;;;;;;3.77;2.47;;;20.50;67.10;19.70;96754.00;;;;5013606;28;20206;-85
2023/09/08 02:00:29;;;;;;;2.23;2.00;;;20.50;67.10;19.70;96754.00;;;;5013470;28;20202;-85
2023/09/08 02:02:56;;;;;;;2.77;2.53;;;20.50;67.20;19.70;96753.00;;;;5013867;28;20668;-85
2023/09/08 02:05:25;;;;;;;2.20;2.10;;;20.50;67.20;19.70;96754.00;;;;5012414;28;20220;-85
2023/09/08 02:07:52;;;;;;;2.57;2.37;;;20.50;68.00;19.70;96747.00;;;;5013311;28;20200;-85
2023/09/08 02:10:20;;;;;;;3.20;3.00;;;20.50;67.20;19.70;96750.00;;;;5012249;28;20220;-85
2023/09/08 02:12:47;;;;;;;2.93;2.70;;;20.50;67.20;19.60;96747.00;;;;5012837;28;20282;-85
2023/09/08 02:15:15;;;;;;;3.00;2.77;;;20.40;67.10;19.60;96746.00;;;;5011188;28;20214;-85
2023/09/08 02:17:44;;;;;;;2.50;2.30;;;20.40;67.00;19.50;96741.00;;;;5011717;28;20218;-85
2023/09/08 02:20:12;;;;;;;2.90;2.57;;;20.40;66.90;19.50;96745.00;;;;5011810;28;20206;-85
2023/09/08 02:22:39;;;;;;;2.50;2.30;;;20.30;66.90;19.50;96746.00;;;;5013315;28;20248;-85
2023/09/08 02:25:08;;;;;;;2.77;2.57;;;20.30;66.90;19.40;96744.00;;;;5013020;28;20190;-85
2023/09/08 02:27:36;;;;;;;2.77;2.57;;;20.30;66.90;19.40;96743.00;;;;5012878;28;20768;-85
2023/09/08 02:30:03;;;;;;;2.73;2.53;;;20.20;66.80;19.30;96741.00;;;;5013012;28;20224;-85
2023/09/08 02:32:30;;;;;;;3.40;2.43;;;20.20;66.90;19.30;96747.00;;;;5013228;28;20671;-85
2023/09/08 02:34:59;;;;;;;2.53;2.37;;;20.10;67.00;19.20;96750.00;;;;5011421;28;20274;-85
2023/09/08 02:37:26;;;;;;;2.57;2.37;;;20.10;67.00;19.20;96752.00;;;;5012861;28;20679;-85
2023/09/08 02:39:54;;;;;;;4.03;2.40;;;20.00;67.10;19.20;96744.00;;;;5012881;28;20204;-85
2023/09/08 02:42:21;;;;;;;3.13;2.83;;;20.00;67.20;19.10;96743.00;;;;5013022;28;20194;-85
2023/09/08 02:44:48;;;;;;;2.60;2.40;;;20.00;67.30;19.10;96740.00;;;;5012474;28;20229;-85
2023/09/08 02:47:15;;;;;;;3.07;2.80;;;20.00;67.40;19.10;96731.00;;;;5012716;28;20196;-85
2023/09/08 02:49:43;;;;;;;2.50;2.30;;;19.90;67.40;19.00;96734.00;;;;5012750;28;20220;-86
2023/09/08 02:52:11;;;;;;;3.33;3.00;;;19.90;67.60;19.00;96733.00;;;;5012741;28;20201;-85
2023/09/08 02:54:39;;;;;;;2.80;2.60;;;19.80;67.60;18.90;96728.00;;;;5012794;28;20697;-85
2023/09/08 02:57:06;;;;;;;3.07;2.87;;;19.80;67.60;18.90;96725.00;;;;5011322;28;20227;-85
2023/09/08 02:59:33;;;;;;;3.50;3.20;;;19.80;68.50;18.90;96726.00;;;;5012546;28;20578;-85
2023/09/08 03:02:01;;;;;;;2.70;2.50;;;19.80;68.00;18.90;96725.00;;;;5012336;28;20281;-85
2023/09/08 03:04:28;;;;;;;2.87;2.50;;;19.70;68.10;18.90;96722.00;;;;5011317;28;20616;-85
2023/09/08 03:06:56;;;;;;;4.70;2.97;;;19.70;68.10;18.90;96727.00;;;;4995086;28;20214;-85
2023/09/08 03:09:25;;;;;;;3.40;3.10;;;19.70;68.10;18.80;96723.00;;;;4992935;28;20224;-85
2023/09/08 03:11:54;;;;;;;2.70;2.50;;;19.70;68.20;18.80;96724.00;;;;5012249;28;20198;-85
2023/09/08 03:14:21;;;;;;;3.73;2.67;;;19.60;68.10;18.80;96730.00;;;;5009724;28;20217;-85
2023/09/08 03:16:48;;;;;;;3.00;2.43;;;19.60;68.10;18.70;96735.00;;;;5010641;28;20297;-85
2023/09/08 03:19:15;;;;;;;2.90;2.70;;;19.60;68.10;18.70;96739.00;;;;5011158;28;20206;-85
2023/09/08 03:21:42;;;;;;;4.43;3.13;;;19.60;68.10;18.70;96734.00;;;;5010730;28;20574;-85
2023/09/08 03:24:10;;;;;;;3.80;2.80;;;19.50;68.80;18.60;96734.00;;;;5010484;28;20210;-85
2023/09/08 03:26:40;;;;;;;3.00;2.70;;;19.50;68.10;18.60;96730.00;;;;5010680;28;20304;-85
2023/09/08 03:29:07;;;;;;;3.10;2.80;;;19.50;68.10;18.60;96733.00;;;;5011875;28;20253;-85
2023/09/08 03:31:34;;;;;;;2.97;2.77;;;19.50;68.20;18.50;96735.00;;;;5011151;28;20210;-85
2023/09/08 03:34:01;;;;;;;3.07;2.87;;;19.40;68.10;18.50;96732.00;;;;5010986;28;20204;-85
2023/09/08 03:36:30;;;;;;;2.87;2.67;;;19.40;68.20;18.50;96734.00;;;;5010984;28;20209;-85
2023/09/08 03:38:58;;;;;;;2.97;2.63;;;19.30;68.20;18.40;96753.00;;;;5011964;28;20268;-85
2023/09/08 03:41:25;;;;;;;3.30;3.00;;;19.30;68.30;18.40;96741.00;;;;5011811;28;20207;-85
2023/09/08 03:43:54;;;;;;;3.03;2.83;;;19.30;68.40;18.40;96745.00;;;;5012854;28;20199;-85
2023/09/08 03:46:21;;;;;;;3.60;3.07;;;19.30;68.50;18.30;96748.00;;;;5016329;28;20210;-85
2023/09/08 03:48:49;;;;;;;3.30;3.00;;;19.20;68.50;18.30;96742.00;;;;5014884;28;20281;-85
2023/09/08 03:51:16;;;;;;;3.07;2.70;;;19.20;68.60;18.30;96744.00;;;;5016233;28;20204;-85
2023/09/08 03:53:43;;;;;;;2.53;2.33;;;19.20;68.90;18.30;96743.00;;;;5014564;28;20194;-85
2023/09/08 03:56:10;;;;;;;3.40;3.10;;;19.20;69.00;18.30;96742.00;;;;5015249;28;20217;-84
2023/09/08 03:58:37;;;;;;;4.07;3.13;;;19.10;69.00;18.20;96750.00;;;;5015993;28;20786;-84
2023/09/08 04:01:06;;;;;;;3.43;2.87;;;19.10;69.10;18.20;96740.00;;;;5011992;28;20206;-84
2023/09/08 04:03:33;;;;;;;3.23;3.03;;;19.10;69.30;18.20;96744.00;;;;5014695;28;20205;-84
2023/09/08 04:06:00;;;;;;;3.57;2.80;;;19.10;69.20;18.20;96736.00;;;;5014464;28;20711;-85
2023/09/08 04:08:27;;;;;;;2.70;2.50;;;19.00;69.20;18.20;96747.00;;;;4999150;28;20282;-85
2023/09/08 04:10:54;;;;;;;3.23;2.93;;;19.00;69.10;18.10;96734.00;;;;5007653;28;20219;-84
2023/09/08 04:13:21;;;;;;;5.33;2.80;;;19.00;69.10;18.10;96740.00;;;;5015813;28;20198;-85
2023/09/08 04:15:49;;;;;;;3.17;2.70;;;19.00;69.10;18.10;96742.00;;;;5015780;28;20721;-84
2023/09/08 04:18:17;;;;;;;3.90;2.63;;;19.00;69.20;18.10;96744.00;;;;5015452;28;20193;-84
2023/09/08 04:20:44;;;;;;;2.87;2.67;;;19.00;69.20;18.00;96742.00;;;;5015274;28;20297;-84
2023/09/08 04:23:12;;;;;;;2.70;2.50;;;18.90;69.10;18.00;96745.00;;;;5015708;28;20632;-84
2023/09/08 04:25:39;;;;;;;3.00;2.80;;;18.90;69.10;18.00;96736.00;;;;5015009;28;20221;-84
2023/09/08 04:28:07;;;;;;;2.70;2.50;;;18.90;69.10;17.90;96734.00;;;;5015263;28;20659;-84
2023/09/08 04:30:34;;;;;;;3.13;2.87;;;18.90;69.10;17.90;96733.00;;;;5015038;28;20217;-84
2023/09/08 04:33:01;;;;;;;3.93;3.00;;;18.80;69.20;17.90;96728.00;;;;4996939;28;20206;-84
2023/09/08 04:35:30;;;;;;;3.10;2.80;;;18.80;69.20;17.90;96733.00;;;;5010811;28;20226;-84
2023/09/08 04:37:57;;;;;;;4.67;2.87;;;18.80;69.30;17.80;96733.00;;;;5015612;28;20197;-84
2023/09/08 04:40:24;;;;;;;3.23;2.93;;;18.70;69.20;17.80;96739.00;;;;5015029;28;20212;-84
2023/09/08 04:42:51;;;;;;;3.63;2.87;;;18.70;69.20;17.80;96741.00;;;;5015241;28;20202;-85
2023/09/08 04:45:18;;;;;;;3.17;2.50;;;18.70;69.20;17.80;96742.00;;;;5015035;28;20218;-87
2023/09/08 04:47:46;;;;;;;3.10;2.70;;;18.70;69.30;17.70;96740.00;;;;5014181;28;20198;-83
2023/09/08 04:50:14;;;;;;;3.13;2.70;;;18.60;69.40;17.70;96749.00;;;;5015290;28;20213;-86
2023/09/08 04:52:43;;;;;;;3.90;3.20;;;18.60;69.40;17.70;96743.00;;;;5015327;28;20216;-87
2023/09/08 04:55:12;;;;;;;3.63;2.60;;;18.60;70.30;17.70;96752.00;;;;5015174;28;20222;-87
2023/09/08 04:57:39;;;;;;;3.20;2.90;;;18.60;69.60;17.70;96750.00;;;;5014375;28;20206;-87
2023/09/08 05:00:08;;;;;;;2.63;2.43;;;18.60;69.60;17.70;96758.00;;;;5014361;28;20225;-87
2023/09/08 05:02:36;;;;;;;3.03;2.77;;;18.60;69.60;17.70;96766.00;;;;5014732;28;20198;-87
2023/09/08 05:05:03;;;;;;;3.33;2.93;;;18.60;69.60;17.70;96758.00;;;;5014369;28;20296;-87
2023/09/08 05:07:31;;;;;;;2.90;2.70;;;18.60;69.60;17.70;96747.00;;;;5016092;28;20233;-88
2023/09/08 05:10:00;;;;;;;2.53;2.37;;;18.60;69.70;17.70;96750.00;;;;5013227;28;20261;-88
2023/09/08 05:12:27;;;;;;;2.90;2.60;;;18.60;69.80;17.70;96761.00;;;;4994145;28;20191;-86
2023/09/08 05:14:59;;;;;;;3.20;2.90;;;18.60;69.70;17.70;96761.00;;;;5012464;28;20659;-88
2023/09/08 05:17:27;;;;;;;3.00;2.80;;;18.60;69.80;17.70;96753.00;;;;5015460;28;20829;-87
2023/09/08 05:19:55;;;;;;;3.43;3.13;;;18.60;69.80;17.70;96755.00;;;;5012931;28;20198;-87
2023/09/08 05:22:22;;;;;;;3.13;2.83;;;18.60;69.80;17.70;96753.00;;;;5013496;28;20194;-85
2023/09/08 05:24:49;;;;;;;3.43;3.00;;;18.60;69.90;17.70;96755.00;;;;5014388;28;20198;-87
2023/09/08 05:27:19;;;;;;;3.00;2.80;;;18.60;69.90;17.70;96763.00;;;;5014885;28;20286;-86
2023/09/08 05:29:46;;;;;;;3.03;2.83;;;18.70;70.00;17.70;96767.00;;;;5012636;28;20310;-85
2023/09/08 05:32:14;;;;;;;2.90;2.70;;;18.60;69.90;17.70;96769.00;;;;5014379;28;20636;-86
2023/09/08 05:34:41;;;;;;;3.43;2.60;;;18.60;70.00;17.70;96772.00;;;;5012981;28;20199;-86
2023/09/08 05:37:08;;;;;;;2.63;2.50;;;18.60;70.20;17.70;96784.00;;;;5014407;28;20220;-87
2023/09/08 05:39:36;;;;;;;3.47;3.17;;;18.60;70.10;17.70;96781.00;;;;5013880;28;20663;-86
2023/09/08 05:42:03;;;;;;;3.57;3.27;;;18.60;70.20;17.70;96782.00;;;;5014220;28;20210;-86
2023/09/08 05:44:32;;;;;;;3.37;2.87;;;18.60;70.30;17.70;96782.00;;;;5014042;28;20202;-86
2023/09/08 05:46:59;;;;;;;3.37;3.17;;;18.60;70.50;17.70;96787.00;;;;5013978;28;20877;-86
2023/09/08 05:49:26;;;;;;;2.87;2.67;;;18.60;70.50;17.80;96781.00;;;;5007808;28;20201;-86
2023/09/08 05:51:53;;;;;;;2.97;2.77;;;18.60;70.60;17.80;96781.00;;;;5013928;28;20201;-85
2023/09/08 05:54:21;;;;;;;3.03;2.73;;;18.70;70.80;17.80;96784.00;;;;4996247;28;20209;-87
2023/09/08 05:56:48;;;;;;;4.40;3.13;;;18.70;71.00;17.80;96782.00;;;;5012871;28;20224;-85
2023/09/08 05:59:16;;;;;;;3.67;3.37;;;18.70;71.20;17.80;96782.00;;;;5013482;28;20658;-86
2023/09/08 06:01:45;;;;;;;3.67;3.37;;;18.70;71.40;17.80;96786.00;;;;5011712;28;20190;-86
2023/09/08 06:04:12;;;;;;;4.23;3.47;;;18.70;71.50;17.90;96782.00;;;;5013062;28;20198;-85
2023/09/08 06:06:39;;;;;;;3.90;3.60;;;18.70;71.60;17.90;96792.00;;;;5011745;28;20654;-85
2023/09/08 06:09:08;;;;;;;3.73;3.43;;;18.70;71.80;17.90;96794.00;;;;5013596;28;20281;-86
2023/09/08 06:11:35;;;;;;;3.53;3.23;;;18.80;72.00;18.00;96793.00;;;;5012607;28;20246;-84
2023/09/08 06:14:03;;;;;;;5.40;3.47;;;18.80;72.10;18.00;96787.00;;;;4994593;28;20198;-86
2023/09/08 06:16:30;;;;;;;3.97;3.67;;;18.80;72.30;18.10;96793.00;;;;4995707;28;20602;-85
2023/09/08 06:18:59;;;;;;;4.90;3.40;;;18.90;72.40;18.10;96799.00;;;;5007542;28;20190;-85
2023/09/08 06:21:26;;;;;;;3.30;3.07;;;18.90;72.60;18.20;96798.00;;;;5013430;28;20205;-84
2023/09/08 06:23:54;;;;;;;3.53;3.23;;;18.90;73.30;18.20;96792.00;;;;5012596;28;20237;-85
2023/09/08 06:26:21;;;;;;;3.70;3.40;;;18.90;72.70;18.30;96798.00;;;;5013200;28;20210;-85
2023/09/08 06:28:48;;;;;;;3.30;3.00;;;19.00;72.80;18.30;96794.00;;;;5011585;28;20581;-85
2023/09/08 06:31:15;;;;;;;3.50;3.20;;;19.00;72.90;18.30;96798.00;;;;5010269;28;20225;-86
2023/09/08 06:33:42;;;;;;;3.63;3.27;;;19.10;72.90;18.40;96791.00;;;;5008599;28;20260;-86
2023/09/08 06:36:11;;;;;;;3.50;3.20;;;19.10;73.00;18.40;96794.00;;;;5012281;28;20214;-86
2023/09/08 06:38:38;;;;;;;3.50;3.20;;;19.10;73.10;18.50;96799.00;;;;5009021;28;20198;-85
2023/09/08 06:41:11;;;;;;;3.80;3.43;;;19.20;73.20;18.50;96795.00;;;;5012183;28;20206;-85
2023/09/08 06:43:38;;;;;;;3.83;3.53;;;19.30;73.40;18.60;96805.00;;;;5010168;28;20465;-86
2023/09/08 06:46:06;;;;;;;4.17;3.87;;;19.30;73.30;18.70;96804.00;;;;5009171;28;20304;-85
2023/09/08 06:48:33;;;;;;;4.27;3.80;;;19.40;73.30;18.70;96800.00;;;;5011130;28;20192;-86
2023/09/08 06:51:00;;;;;;;3.83;3.53;;;19.40;73.30;18.80;96807.00;;;;5011960;28;20247;-85
2023/09/08 06:53:30;;;;;;;4.20;3.80;;;19.50;73.40;18.90;96800.00;;;;5005932;28;20196;-85
2023/09/08 06:55:58;;;;;;;4.20;3.80;;;19.50;73.50;18.90;96805.00;;;;5008361;28;20249;-85
2023/09/08 06:58:25;;;;;;;3.93;3.63;;;19.60;73.70;19.00;96806.00;;;;5008054;28;20202;-85
2023/09/08 07:00:54;;;;;;;4.17;3.87;;;19.70;74.50;19.10;96803.00;;;;5010982;28;20202;-85
2023/09/08 07:03:22;;;;;;;5.43;4.00;;;19.70;73.80;19.20;96813.00;;;;5011517;28;20194;-85
2023/09/08 07:05:50;;;;;;;3.77;3.43;;;19.80;73.90;19.20;96813.00;;;;5011774;28;20228;-84
2023/09/08 07:08:18;;;;;;;4.67;4.23;;;19.80;73.80;19.30;96813.00;;;;4993372;28;20201;-85
2023/09/08 07:10:53;;;;;;;4.07;3.73;;;19.90;73.80;19.40;96821.00;;;;5004421;28;20269;-85
2023/09/08 07:13:20;;;;;;;3.93;3.63;;;20.00;73.90;19.50;96816.00;;;;5012130;28;20194;-85
2023/09/08 07:15:48;;;;;;;4.33;3.87;;;20.10;73.70;19.60;96815.00;;;;5005018;28;20215;-85
2023/09/08 07:18:15;;;;;;;4.47;4.07;;;20.20;73.60;19.70;96820.00;;;;5011436;28;20193;-85
2023/09/08 07:20:42;;;;;;;4.87;3.97;;;20.20;73.50;19.80;96817.00;;;;5010847;28;20202;-85
2023/09/08 07:23:09;;;;;;;4.30;3.90;;;20.30;73.70;19.90;96817.00;;;;5011001;28;20686;-85
2023/09/08 07:25:36;;;;;;;3.90;3.60;;;20.40;74.00;20.00;96817.00;;;;5010566;28;20218;-85
2023/09/08 07:28:06;;;;;;;3.97;3.57;;;20.50;74.20;20.10;96817.00;;;;5012155;28;20204;-85
2023/09/08 07:30:33;;;;;;;4.20;3.77;;;20.60;74.20;20.20;96815.00;;;;5010686;28;20213;-85
2023/09/08 07:33:01;;;;;;;4.00;3.57;;;20.70;74.10;20.30;96813.00;;;;5010707;28;20208;-85
2023/09/08 07:35:28;;;;;;;4.30;4.00;;;20.80;74.00;20.40;96811.00;;;;5004362;28;20222;-85
2023/09/08 07:37:55;;;;;;;4.07;3.67;;;20.90;74.50;20.60;96807.00;;;;5011310;28;20284;-84
2023/09/08 07:40:22;;;;;;;4.00;3.70;;;21.00;73.70;20.70;96810.00;;;;4987675;28;20677;-85
2023/09/08 07:42:50;;;;;;;4.20;3.90;;;21.10;73.30;20.80;96812.00;;;;5010246;28;20579;-85
2023/09/08 07:45:18;;;;;;;4.80;4.40;;;21.30;73.10;20.90;96815.00;;;;5010699;28;20304;-85
2023/09/08 07:47:46;;;;;;;3.83;3.53;;;21.40;73.60;21.00;96810.00;;;;5011800;28;20612;-85
2023/09/08 07:50:22;;;;;;;3.47;3.17;;;21.50;72.80;21.10;96815.00;;;;5009685;28;20205;-85
2023/09/08 07:52:51;;;;;;;3.70;3.40;;;21.60;72.80;21.20;96809.00;;;;5010994;28;20208;-85
2023/09/08 07:55:19;;;;;;;5.30;4.27;;;21.70;72.60;21.40;96813.00;;;;5006677;28;20216;-85
2023/09/08 07:57:47;;;;;;;4.63;4.07;;;21.80;72.40;21.50;96811.00;;;;5009518;28;20576;-85
2023/09/08 08:00:15;;;;;;;4.73;3.97;;;21.90;72.20;21.60;96818.00;;;;5012106;28;20194;-84
2023/09/08 08:02:48;;;;;;;4.07;3.67;;;22.00;71.90;21.70;96809.00;;;;5011526;28;20678;-85
2023/09/08 08:05:15;;;;;;;4.27;3.97;;;22.20;71.70;21.80;96806.00;;;;5011954;28;20224;-85
2023/09/08 08:07:44;;;;;;;4.70;4.13;;;22.30;71.70;22.00;96816.00;;;;5008632;28;20563;-85
2023/09/08 08:10:13;;;;;;;3.97;3.60;;;22.40;71.50;22.10;96820.00;;;;5011899;28;20216;-85
2023/09/08 08:12:42;;;;;;;4.30;3.90;;;22.50;71.30;22.20;96819.00;;;;5008584;28;20242;-85
2023/09/08 08:15:13;;;;;;;4.97;4.03;;;22.60;71.20;22.40;96813.00;;;;5012775;28;20215;-84
2023/09/08 08:17:41;;;;;;;4.43;4.03;;;22.80;70.60;22.50;96814.00;;;;5015370;28;20203;-84
2023/09/08 08:20:17;;;;;;;4.40;4.00;;;22.90;70.50;22.60;96825.00;;;;5016851;28;20190;-85
2023/09/08 08:22:45;;;;;;;4.00;3.50;;;23.00;70.30;22.80;96823.00;;;;5011941;28;20201;-85
2023/09/08 08:25:13;;;;;;;4.10;3.70;;;23.20;70.40;22.90;96820.00;;;;5006626;28;20244;-85
2023/09/08 08:27:41;;;;;;;4.37;4.07;;;23.30;70.20;23.00;96825.00;;;;5005802;28;20197;-85
2023/09/08 08:30:11;;;;;;;5.13;4.10;;;23.40;70.10;23.10;96838.00;;;;5013807;28;20241;-85
2023/09/08 08:32:38;;;;;;;4.30;4.00;;;23.50;69.70;23.20;96828.00;;;;5008782;28;20217;-85
2023/09/08 08:35:07;;;;;;;4.97;4.30;;;23.60;69.40;23.30;96828.00;;;;4997456;28;20622;-86
2023/09/08 08:37:35;;;;;;;4.53;4.13;;;23.70;69.20;23.40;96825.00;;;;5014954;28;20291;-85
2023/09/08 08:40:04;;;;;;;4.80;4.40;;;23.80;70.10;23.50;96818.00;;;;5012849;28;20200;-86
2023/09/08 08:42:33;;;;;;;4.63;4.23;;;23.90;69.10;23.60;96826.00;;;;4996957;28;20195;-85
2023/09/08 08:45:03;;;;;;;4.50;4.10;;;24.00;68.80;23.70;96824.00;;;;5013110;28;20209;-85
2023/09/08 08:47:30;;;;;;;4.57;4.10;;;24.10;69.00;23.80;96826.00;;;;5015443;28;20255;-86
2023/09/08 08:49:59;;;;;;;4.50;4.10;;;24.20;68.90;23.90;96835.00;;;;5013877;28;20194;-86
2023/09/08 08:52:27;;;;;;;4.00;3.70;;;24.30;68.90;24.00;96827.00;;;;5014260;28;20236;-85
2023/09/08 08:54:56;;;;;;;4.10;3.73;;;24.40;69.00;24.20;96828.00;;;;5014873;28;20194;-85
2023/09/08 08:57:27;;;;;;;4.60;4.20;;;24.60;69.00;24.30;96824.00;;;;5014738;28;20190;-85
2023/09/08 08:59:54;;;;;;;5.03;4.00;;;24.60;68.60;24.40;96816.00;;;;5014903;28;20228;-85
2023/09/08 09:02:25;;;;;;;3.60;3.40;;;24.70;68.30;24.50;96819.00;;;;5015065;28;20551;-85
2023/09/08 09:04:53;;;;;;;4.17;3.50;;;24.90;68.50;24.70;96824.00;;;;5015042;28;20277;-85
2023/09/08 09:07:22;;;;;;;4.63;4.07;;;25.00;68.30;24.80;96827.00;;;;5014608;28;20201;-85
2023/09/08 09:09:49;;;;;;;5.13;4.10;;;25.10;68.10;24.90;96819.00;;;;5014762;28;20281;-85
2023/09/08 09:12:18;;;;;;;5.43;4.40;;;25.20;67.80;25.00;96817.00;;;;5014419;28;20218;-85
2023/09/08 09:14:48;;;;;;;5.40;4.83;;;25.30;67.60;25.20;96812.00;;;;5014095;28;20553;-85
2023/09/08 09:17:16;;;;;;;4.60;4.20;;;25.50;66.90;25.30;96822.00;;;;4996147;28;20205;-86
2023/09/08 09:19:43;;;;;;;4.87;4.07;;;25.60;67.20;25.40;96814.00;;;;5012698;28;20198;-86
2023/09/08 09:22:10;;;;;;;4.43;4.03;;;25.70;67.10;25.50;96817.00;;;;5014448;28;20205;-85
2023/09/08 09:24:40;;;;;;;5.33;4.10;;;25.80;67.00;25.60;96812.00;;;;5013437;28;20621;-87
2023/09/08 09:27:09;;;;;;;4.37;3.97;;;25.90;67.00;25.70;96812.00;;;;5007808;28;20210;-85
2023/09/08 09:29:47;;;;;;;6.03;4.43;;;26.00;66.70;25.80;96813.00;;;;5011988;28;20194;-85
2023/09/08 09:32:29;;;;;;;4.87;4.27;;;26.20;66.10;26.00;96810.00;;;;5008086;28;20232;-85
2023/09/08 09:35:00;;;;;;;4.40;4.00;;;26.30;66.20;26.10;96810.00;;;;5012761;28;20222;-85
2023/09/08 09:37:29;;;;;;;5.03;3.90;;;26.40;66.40;26.20;96805.00;;;;5014284;28;20208;-86
2023/09/08 09:39:56;;;;;;;4.10;3.70;;;26.50;66.20;26.30;96807.00;;;;5013871;28;20205;-85
2023/09/08 09:42:23;;;;;;;5.13;3.90;;;26.60;66.30;26.40;96810.00;;;;5011934;28;20570;-86
2023/09/08 09:44:53;;;;;;;4.73;4.33;;;26.70;66.00;26.50;96807.00;;;;5011044;28;20244;-85
2023/09/08 09:47:21;;;;;;;5.85;4.18;;;26.80;65.10;26.70;96815.00;;;;5009136;28;20208;-85
2023/09/08 09:49:50;;;;;;;4.70;4.30;;;27.00;65.30;26.80;96805.00;;;;5012701;28;20194;-85
2023/09/08 09:52:25;;;;;;;5.20;4.70;;;27.10;64.70;26.90;96807.00;;;;5013782;28;20304;-85
2023/09/08 09:54:55;;;;;;;5.68;4.90;;;27.20;64.20;27.00;96809.00;;;;5012090;28;20193;-86
2023/09/08 09:57:24;;;;;;;4.60;4.20;;;27.30;63.60;27.10;96806.00;;;;5004457;28;20270;-85
2023/09/08 09:59:56;;;;;;;4.75;4.45;;;27.40;63.80;27.20;96811.00;;;;5011851;28;20195;-85
2023/09/08 10:02:26;;;;;;;4.35;4.05;;;27.50;63.80;27.40;96805.00;;;;5008279;28;20202;-84
2023/09/08 10:04:55;;;;;;;5.10;4.70;;;27.60;64.00;27.50;96804.00;;;;5012154;28;20276;-85
2023/09/08 10:07:24;;;;;;;6.57;4.43;;;27.70;63.30;27.60;96804.00;;;;5012538;28;20212;-84
2023/09/08 10:09:51;;;;;;;4.72;4.05;;;27.80;63.10;27.70;96813.00;;;;5010234;28;20198;-84
2023/09/08 10:12:19;;;;;;;4.50;4.13;;;27.90;63.00;27.80;96810.00;;;;5006088;28;20245;-85
2023/09/08 10:14:52;;;;;;;5.15;4.75;;;28.00;63.20;27.90;96804.00;;;;5011723;28;20194;-85
2023/09/08 10:17:31;;;;;;;4.30;4.00;;;28.10;62.40;28.00;96805.00;;;;5007945;28;20194;-84
2023/09/08 10:20:08;;;;;;;4.60;4.20;;;28.20;61.90;28.10;96805.00;;;;4995203;28;20205;-85
2023/09/08 10:22:39;;;;;;;5.10;4.40;;;28.30;61.80;28.20;96799.00;;;;5011412;28;20232;-84
2023/09/08 10:25:09;;;;;;;5.25;4.45;;;28.40;61.70;28.30;96800.00;;;;5010939;28;20273;-85
2023/09/08 10:27:37;;;;;;;5.28;4.78;;;28.50;61.80;28.40;96798.00;;;;5013264;28;20194;-85
2023/09/08 10:30:07;;;;;;;5.00;4.60;;;28.60;61.70;28.40;96799.00;;;;4995898;28;20269;-86
2023/09/08 10:32:37;;;;;;;6.22;4.75;;;28.60;61.50;28.50;96802.00;;;;5007611;28;20814;-85
2023/09/08 10:35:06;;;;;;;4.25;3.88;;;28.70;61.40;28.60;96799.00;;;;5013388;28;20222;-85
2023/09/08 10:37:33;;;;;;;5.00;4.35;;;28.80;61.30;28.70;96805.00;;;;5011717;28;20209;-86
2023/09/08 10:40:27;;;;;;;5.10;4.50;;;28.90;61.30;28.80;96795.00;;;;5013452;28;20221;-85
2023/09/08 10:43:10;;;;;;;4.95;4.55;;;29.00;60.30;28.90;96795.00;;;;5008895;28;20675;-85
2023/09/08 10:45:39;;;;;;;5.78;5.13;;;29.10;60.00;28.90;96791.00;;;;5012831;28;20714;-85
2023/09/08 10:48:08;;;;;;;4.90;4.15;;;29.10;59.70;29.00;96799.00;;;;5010491;28;20202;-85
2023/09/08 10:50:41;;;;;;;4.32;4.03;;;29.20;60.10;29.00;96794.00;;;;5013069;28;20198;-86
2023/09/08 10:53:11;;;;;;;4.30;3.90;;;29.20;59.80;29.00;96797.00;;;;5010953;28;20217;-85
2023/09/08 10:55:47;;;;;;;4.40;4.10;;;29.20;60.00;29.00;96796.00;;;;5012326;28;20218;-86
2023/09/08 10:58:20;;;;;;;4.88;3.97;;;29.20;60.10;29.00;96791.00;;;;5003878;28;20699;-85
2023/09/08 11:00:56;;;;;;;4.53;4.15;;;29.20;59.80;28.90;96785.00;;;;5011680;28;20605;-85